Terminal Aerodrome Forecast
Issued by NWS Memphis, TN

Home | Current Version | Previous Version | Text Only | Print | Product List | Glossary On
Versions: 1 2 3 4 5 6 7 8 9 10 11 12 13 14 15
073
FTUS44 KMEG 261127
TAFJBR
TAF
KJBR 261127Z 2612/2712 06004KT P6SM SKC
     FM261400 14008KT P6SM SCT150 BKN250
     FM270200 15004KT P6SM OVC050
     FM270600 04005KT P6SM -RA OVC015
      TEMPO 2707/2711 3SM -RA OVC007=

USA.gov is the U.S. government's official web portal to all federal, state and local government web resources and services.